Picton Castle — E5WP — position and weather

sailwx.info

Track history (hours):
 
Tides and Currents Weather Stations Pressure Air Temp Water Temp Dewpoint Dewpoint Depression Visibility Wind Speed Wind Dir Waves Ship Positions

Picton Castle (Cook Islands)

Ship's website: http://www.picton-castle.com/

Last reported at 2016-Aug-24 20:30 UTC. Time now 2016-Aug-29 14:45 UTC.
Position N 46°07' W 072°58'.

; draft 4.4 m.

Type: Sailing vessel. MMSI: 518000019.

Date/timePositionNaut miles runAvg speedWind from/ knotsBaromVisibWave heightAir tempDewpointWater temp
2016-Aug-24 20:30N 46°07' W 072°58'9 9.1
2016-Aug-24 19:33N 46°03' W 073°09'9 9.3
2016-Aug-24 18:33N 45°54' W 073°13'10 9.5
2016-Aug-24 17:33N 45°47' W 073°22'12 9.8
2016-Aug-24 16:21N 45°36' W 073°30'3 0.7
2016-Aug-24 12:03N 45°33' W 073°31'0 0.0
2016-Aug-24 08:03N 45°33' W 073°31'0 0.0
2016-Aug-24 07:33N 45°33' W 073°31'0 0.0
2016-Aug-24 04:27N 45°33' W 073°31'1 1.2
2016-Aug-24 03:33N 45°32' W 073°32'9 2.2
2016-Aug-23 23:13N 45°24' W 073°38'5 7.1
2016-Aug-23 22:34N 45°24' W 073°45'9 7.4
2016-Aug-23 21:20N 45°19' W 073°55'1 1.1
2016-Aug-23 20:33N 45°18' W 073°56'0 0.3
2016-Aug-23 19:09N 45°18' W 073°56'  
Track history (hours):
 
Tides and Currents Weather Stations Pressure Air Temp Water Temp Dewpoint Dewpoint Depression Visibility Wind Speed Wind Dir Waves Ship Positions

Picton Castle (Cook Islands)

Ship's website: http://www.picton-castle.com/

Last reported at 2016-Aug-24 20:30 UTC. Time now 2016-Aug-29 14:45 UTC.
Position N 46°07' W 072°58'.

; draft 4.4 m.

Type: Sailing vessel. MMSI: 518000019.

Date/timePositionNaut miles runAvg speedWind from/ knotsBaromVisibWave heightAir tempDewpointWater temp
2016-Aug-24 20:30N 46°07' W 072°58'9 9.1
2016-Aug-24 19:33N 46°03' W 073°09'9 9.3
2016-Aug-24 18:33N 45°54' W 073°13'10 9.5
2016-Aug-24 17:33N 45°47' W 073°22'12 9.8
2016-Aug-24 16:21N 45°36' W 073°30'3 0.7
2016-Aug-24 12:03N 45°33' W 073°31'0 0.0
2016-Aug-24 08:03N 45°33' W 073°31'0 0.0
2016-Aug-24 07:33N 45°33' W 073°31'0 0.0
2016-Aug-24 04:27N 45°33' W 073°31'1 1.2
2016-Aug-24 03:33N 45°32' W 073°32'9 2.2
2016-Aug-23 23:13N 45°24' W 073°38'5 7.1
2016-Aug-23 22:34N 45°24' W 073°45'9 7.4
2016-Aug-23 21:20N 45°19' W 073°55'1 1.1
2016-Aug-23 20:33N 45°18' W 073°56'0 0.3
2016-Aug-23 19:09N 45°18' W 073°56'  

Dump ship's entire track history